Wind van: 24-02-2020 13:00 tot: 19:00 waarschuwing voor: Wind niveau: Geel info button
Zware windstoten van 75 km/u, langs de kust mogelijk 90 km/u.Kans op windstoten.Verkeer en buitenactiviteiten kunnen hinder ondervinden.Volg weerberichten en waarschuwingen.


Onweer radar Meer informatie blitzortung!


Regen radar Meer informatie rain snow radar



METAR rapporten vliegvelden

   
EHGR - Dalem
Gewijzigd: 24-02-2020 14:31
Grotendeels bewolkt  
Grotendeels bewolkt  
   Wind: ZW 7.7 m/s<br />Gust to 7.7 m/s
Wind: ZW 7.7 m/s
Gust to 7.7 m/s
Temperatuur: 12°C
Dauwpunt: 10°C
Vochtigheid: 88%
Barometer: 1007 hPa
Bewolking: Grotendeels bewolkt
Zicht: meer dan 10 km
Bewolking: Licht bewolkt 1500 ft,
Grotendeels bewolkt 1800 ft,
Grotendeels bewolkt 2200 ft
EHGR 241331Z AUTO 22015G33KT 190V260 9999 FEW015 BKN018 BKN022 12/10 Q1007 WHT 21015G30KT 9999 FEW012 SCT015 BKN020
EHGR - Roosendaal
Gewijzigd: 24-02-2020 14:31
Grotendeels bewolkt  
Grotendeels bewolkt  
   Wind: ZW 7.7 m/s<br />Gust to 7.7 m/s
Wind: ZW 7.7 m/s
Gust to 7.7 m/s
Temperatuur: 12°C
Dauwpunt: 10°C
Vochtigheid: 88%
Barometer: 1007 hPa
Bewolking: Grotendeels bewolkt
Zicht: meer dan 10 km
Bewolking: Licht bewolkt 1500 ft,
Grotendeels bewolkt 1800 ft,
Grotendeels bewolkt 2200 ft
EHGR 241331Z AUTO 22015G33KT 190V260 9999 FEW015 BKN018 BKN022 12/10 Q1007 WHT 21015G30KT 9999 FEW012 SCT015 BKN020
EHRD - Rotterdam
Gewijzigd: 24-02-2020 14:25
Wat regen mogelijk, Bewolking  
Wat regen mogelijk, Bewolking  
   Wind: ZW 14.4 m/s<br />Gust to 14.4 m/s
Wind: ZW 14.4 m/s
Gust to 14.4 m/s
Temperatuur: 11°C
Dauwpunt: 9°C
Vochtigheid: 88%
Barometer: 1005 hPa
Bewolking: Bewolking
Zicht: meer dan 10 km
Bewolking: Grotendeels bewolkt 1500 ft,
Grotendeels bewolkt 1900 ft,
Bewolking 2300 ft
EHRD 241325Z AUTO 22028G41KT 9999 -RA BKN015 BKN019 OVC023 11/09 Q1005 TEMPO 23027G43KT
EHLW - Urk
Gewijzigd: 24-02-2020 14:46
Grotendeels bewolkt  
Grotendeels bewolkt  
   Wind: Zuiden 7.7 m/s
Wind: Zuiden 7.7 m/s
Temperatuur: 6°C
Voelt als: 2°C
Dauwpunt: 5°C
Vochtigheid: 93%
Barometer: 1002 hPa
Bewolking: Grotendeels bewolkt
Bewolking: Licht bewolkt 400 ft,
Gedeeltelijk bewolkt 500 ft,
Grotendeels bewolkt 600 ft
EHLW 241346Z AUTO 17015KT 140V200 //// // FEW004 SCT005 BKN006 06/05 Q1002 17017G27KT 9000 BR SCT010 BKN012 TEMPO 3000 RADZ SCT004 BKN007
EHDL - Veenendaal
Gewijzigd: 24-02-2020 14:25
Lichte (mot)regen, Grotendeels bewolkt  
Lichte (mot)regen, Grotendeels bewolkt  
   Wind: Zuiden 7.2 m/s
Wind: Zuiden 7.2 m/s
Temperatuur: 8°C
Voelt als: 4°C
Dauwpunt: 8°C
Vochtigheid: 100%
Barometer: 1007 hPa
Bewolking: Grotendeels bewolkt
Zicht: meer dan 10 km
Bewolking: Licht bewolkt 300 ft,
Grotendeels bewolkt 400 ft,
Grotendeels bewolkt 500 ft
EHDL 241325Z AUTO 19014KT 140V240 9999 -DZ FEW003 BKN004 BKN005 08/08 Q1007 YLO
EHRD - Vianen
Gewijzigd: 24-02-2020 14:25
Wat regen mogelijk, Bewolking  
Wat regen mogelijk, Bewolking  
   Wind: ZW 14.4 m/s<br />Gust to 14.4 m/s
Wind: ZW 14.4 m/s
Gust to 14.4 m/s
Temperatuur: 11°C
Dauwpunt: 9°C
Vochtigheid: 88%
Barometer: 1005 hPa
Bewolking: Bewolking
Zicht: meer dan 10 km
Bewolking: Grotendeels bewolkt 1500 ft,
Grotendeels bewolkt 1900 ft,
Bewolking 2300 ft
EHRD 241325Z AUTO 22028G41KT 9999 -RA BKN015 BKN019 OVC023 11/09 Q1005 TEMPO 23027G43KT

Script ontwikkeld door  Saratoga-weather.org Aangepast voor de template door  Weerstation Leuven

U vindt ons ook hier:

Het Weer Aktueel

UK Metoffice

European Weather Network

WeatherCloud

Weather Underground

AWEKAS

Citizen Weather Observer Program (CWOP)

HAMweather, WeatherForYou, PWS Weather

Apparatuur in gebruik:

Weerstation
Davis VP2 weatherstation

Weerprogramma
Meteobridge

Weercomputer
Asus WL_330N3G

Davis VP2 weatherstation

Meteobridge

Asus WL_330N3G